createdAt,value
2023-04-22T00:00:06.946Z,89.7923
2023-04-22T00:01:07.215Z,89.7168
2023-04-22T00:02:07.702Z,89.7703
2023-04-22T00:03:08.333Z,89.8505
2023-04-22T00:04:09.835Z,89.8825
2023-04-22T00:05:10.814Z,90.2606
2023-04-22T00:06:11.168Z,90.3293
2023-04-22T00:07:11.467Z,90.2972
2023-04-22T00:08:12.041Z,90.3830
2023-04-22T00:09:12.491Z,90.4515
2023-04-22T00:10:12.801Z,90.1064
2023-04-22T00:11:13.181Z,89.4687
2023-04-22T00:12:13.492Z,89.9127
2023-04-22T00:13:13.823Z,89.7795
2023-04-22T00:14:14.152Z,90.1247
2023-04-22T00:15:14.565Z,90.0357
2023-04-22T00:16:14.981Z,89.8259
2023-04-22T00:17:15.398Z,89.5407
2023-04-22T00:18:15.710Z,89.0678
2023-04-22T00:19:16.050Z,89.1950
2023-04-22T00:20:16.390Z,89.0267
2023-04-22T00:21:16.680Z,88.9473
2023-04-22T00:22:16.972Z,88.6322
2023-04-22T00:23:17.335Z,88.4724
2023-04-22T00:24:17.627Z,88.3873
2023-04-22T00:25:17.989Z,88.3727
2023-04-22T00:26:18.275Z,88.4708
2023-04-22T00:27:18.571Z,88.6139
2023-04-22T00:28:18.993Z,88.7348
2023-04-22T00:29:19.258Z,88.8304
2023-04-22T00:30:19.556Z,88.4208
2023-04-22T00:31:19.879Z,89.0634
2023-04-22T00:32:20.158Z,89.4293
2023-04-22T00:33:20.490Z,89.2785
2023-04-22T00:34:20.821Z,89.2750
2023-04-22T00:35:21.179Z,88.6483
2023-04-22T00:36:21.511Z,88.4899
2023-04-22T00:37:21.837Z,88.3653
2023-04-22T00:38:22.210Z,88.3939
2023-04-22T00:39:22.622Z,88.4517
2023-04-22T00:40:22.958Z,88.6751
2023-04-22T00:41:23.237Z,88.7622
2023-04-22T00:42:23.574Z,88.8695
2023-04-22T00:43:23.939Z,89.1186
2023-04-22T00:44:24.259Z,89.1228
2023-04-22T00:45:24.557Z,89.2607
2023-04-22T00:46:24.906Z,89.3578
2023-04-22T00:47:25.318Z,89.8472
2023-04-22T00:48:29.152Z,89.5844
2023-04-22T00:49:27.129Z,89.6068
2023-04-22T00:50:27.539Z,89.7503
2023-04-22T00:51:27.858Z,89.3964
2023-04-22T00:52:28.182Z,89.4888
2023-04-22T00:53:28.513Z,89.8080
2023-04-22T00:54:28.794Z,89.8989
2023-04-22T00:55:29.095Z,89.5132
2023-04-22T00:56:29.429Z,88.7949
2023-04-22T00:57:29.707Z,89.2237
2023-04-22T00:58:30.187Z,89.2856
2023-04-22T00:59:30.505Z,89.8372
2023-04-22T01:00:30.942Z,89.8313
2023-04-22T01:01:31.444Z,90.2425
2023-04-22T01:02:32.641Z,90.6373
2023-04-22T01:03:33.708Z,90.8415
2023-04-22T01:04:34.428Z,91.2231
2023-04-22T01:05:34.798Z,91.3870
2023-04-22T01:06:35.332Z,92.4622
2023-04-22T01:07:35.671Z,92.7751
2023-04-22T01:08:36.107Z,93.0574
2023-04-22T01:09:36.482Z,93.2204
2023-04-22T01:10:36.808Z,93.2143
2023-04-22T01:11:37.213Z,92.9671
2023-04-22T01:12:37.543Z,92.9029
2023-04-22T01:13:37.819Z,93.0376
2023-04-22T01:14:38.179Z,93.2110
2023-04-22T01:15:38.494Z,93.2896
2023-04-22T01:16:38.993Z,93.3289
2023-04-22T01:17:39.409Z,92.9115
2023-04-22T01:18:39.686Z,92.5170
2023-04-22T01:19:41.380Z,92.4023
2023-04-22T01:20:42.291Z,92.3361
2023-04-22T01:21:42.648Z,92.1083
2023-04-22T01:22:42.970Z,91.8207
2023-04-22T01:23:43.350Z,91.6212
2023-04-22T01:24:43.765Z,91.4777
2023-04-22T01:25:44.064Z,91.2986
2023-04-22T01:26:44.389Z,91.2665
2023-04-22T01:27:44.748Z,91.2682
2023-04-22T01:28:45.133Z,91.2189
2023-04-22T01:29:45.457Z,91.4137
2023-04-22T01:30:45.951Z,91.4580
2023-04-22T01:31:46.397Z,91.7086
2023-04-22T01:32:46.728Z,91.8785
2023-04-22T01:33:47.045Z,91.6520
2023-04-22T01:34:47.364Z,91.5427
2023-04-22T01:35:47.739Z,91.5845
2023-04-22T01:36:48.089Z,91.6775
2023-04-22T01:37:48.399Z,91.7737
2023-04-22T01:38:48.798Z,91.7621
2023-04-22T01:39:49.138Z,91.9480
2023-04-22T01:40:49.480Z,92.3098
2023-04-22T01:41:49.826Z,92.0694
2023-04-22T01:42:50.129Z,91.7529
2023-04-22T01:43:50.493Z,91.7097
2023-04-22T01:44:50.825Z,91.3104
2023-04-22T01:45:51.235Z,91.4086
2023-04-22T01:46:51.575Z,91.5347
2023-04-22T01:47:52.026Z,91.6072
2023-04-22T01:48:52.370Z,91.4263
2023-04-22T01:49:52.700Z,91.2444
2023-04-22T01:50:53.067Z,91.3823
2023-04-22T01:51:53.401Z,91.2996
2023-04-22T01:52:53.736Z,91.4078
2023-04-22T01:53:54.098Z,91.4758
2023-04-22T01:54:54.372Z,91.4570
2023-04-22T01:55:54.740Z,91.4379
2023-04-22T01:56:55.103Z,91.3808
2023-04-22T01:57:55.400Z,91.3036
2023-04-22T01:58:55.788Z,91.4003
2023-04-22T01:59:56.186Z,91.5808
2023-04-22T02:00:56.505Z,91.1050
2023-04-22T02:01:56.983Z,91.0730
2023-04-22T02:02:57.573Z,91.2640
2023-04-22T02:03:57.977Z,91.7254
2023-04-22T02:04:58.569Z,91.8617
2023-04-22T02:05:58.863Z,91.7645
2023-04-22T02:06:59.266Z,91.9677
2023-04-22T02:07:59.654Z,92.6891
2023-04-22T02:08:59.970Z,93.1077
2023-04-22T02:10:00.310Z,93.3236
2023-04-22T02:11:00.698Z,93.4611
2023-04-22T02:12:01.149Z,93.5758
2023-04-22T02:13:01.466Z,93.6252
2023-04-22T02:14:01.839Z,93.4141
2023-04-22T02:15:02.194Z,92.5040
2023-04-22T02:16:02.598Z,92.0479
2023-04-22T02:17:02.876Z,92.7194
2023-04-22T02:18:03.283Z,93.1966
2023-04-22T02:19:03.744Z,93.4334
2023-04-22T02:20:04.238Z,93.6191
2023-04-22T02:21:04.645Z,93.7904
2023-04-22T02:22:04.986Z,94.0310
2023-04-22T02:23:05.342Z,94.5951
2023-04-22T02:24:05.733Z,94.9484
2023-04-22T02:25:06.117Z,95.1437
2023-04-22T02:26:06.538Z,95.2139
2023-04-22T02:27:06.977Z,94.9570
2023-04-22T02:28:07.402Z,94.6103
2023-04-22T02:29:07.781Z,94.7654
2023-04-22T02:30:08.159Z,94.8743
2023-04-22T02:31:08.724Z,94.8794
2023-04-22T02:32:09.123Z,94.8207
2023-04-22T02:33:09.635Z,94.7095
2023-04-22T02:34:09.960Z,94.5785
2023-04-22T02:35:10.336Z,94.4865
2023-04-22T02:36:10.807Z,94.4234
2023-04-22T02:37:11.230Z,94.3774
2023-04-22T02:38:11.627Z,94.4412
2023-04-22T02:39:12.035Z,94.2364
2023-04-22T02:40:12.393Z,93.8831
2023-04-22T02:41:12.729Z,92.7018
2023-04-22T02:42:13.108Z,92.7040
2023-04-22T02:43:13.501Z,93.1701
2023-04-22T02:44:13.971Z,93.1966
2023-04-22T02:45:14.393Z,93.4171
2023-04-22T02:46:15.891Z,93.6556
2023-04-22T02:47:16.227Z,93.7071
2023-04-22T02:48:16.649Z,93.9742
2023-04-22T02:49:17.042Z,94.2148
2023-04-22T02:50:17.451Z,94.4449
2023-04-22T02:51:17.827Z,94.5654
2023-04-22T02:52:18.248Z,94.4165
2023-04-22T02:53:18.598Z,94.5041
2023-04-22T02:54:18.984Z,94.7073
2023-04-22T02:55:19.364Z,94.9669
2023-04-22T02:56:19.779Z,95.0818
2023-04-22T02:57:20.134Z,95.1531
2023-04-22T02:58:20.569Z,95.1576
2023-04-22T02:59:20.964Z,95.2156
2023-04-22T03:00:21.401Z,95.2646
2023-04-22T03:01:21.887Z,95.3164
2023-04-22T03:02:22.525Z,95.2406
2023-04-22T03:03:23.510Z,94.9894
2023-04-22T03:04:24.674Z,94.7801
2023-04-22T03:05:25.184Z,94.7199
2023-04-22T03:06:25.580Z,94.6959
2023-04-22T03:07:25.964Z,94.6850
2023-04-22T03:08:26.336Z,94.6902
2023-04-22T03:09:26.742Z,94.7189
2023-04-22T03:10:27.158Z,94.5721
2023-04-22T03:11:27.563Z,94.6570
2023-04-22T03:12:27.924Z,94.8196
2023-04-22T03:13:28.377Z,94.8616
2023-04-22T03:14:28.810Z,94.9216
2023-04-22T03:15:29.254Z,95.0174
2023-04-22T03:16:29.651Z,95.0019
2023-04-22T03:17:30.030Z,95.0376
2023-04-22T03:18:30.455Z,94.9777
2023-04-22T03:19:30.887Z,94.9343
2023-04-22T03:20:31.275Z,94.9118
2023-04-22T03:21:31.640Z,95.0238
2023-04-22T03:22:32.050Z,95.1321
2023-04-22T03:23:32.442Z,94.9922
2023-04-22T03:24:32.931Z,94.6592
2023-04-22T03:25:33.318Z,94.4012
2023-04-22T03:26:33.760Z,94.1754
2023-04-22T03:27:34.186Z,94.1405
2023-04-22T03:28:34.732Z,94.1290
2023-04-22T03:29:35.112Z,94.2929
2023-04-22T03:30:35.567Z,94.2843
2023-04-22T03:31:36.084Z,94.1619
2023-04-22T03:32:36.589Z,94.1167
2023-04-22T03:33:36.991Z,94.1634
2023-04-22T03:34:37.845Z,94.2516
2023-04-22T03:35:38.334Z,94.2917
2023-04-22T03:36:38.847Z,94.1314
2023-04-22T03:37:39.311Z,93.9760
2023-04-22T03:38:39.712Z,93.6640
2023-04-22T03:39:40.673Z,93.5761
2023-04-22T03:40:41.335Z,93.6469
2023-04-22T03:41:41.714Z,93.7851
2023-04-22T03:42:42.140Z,93.9388
2023-04-22T03:43:42.727Z,93.9372
2023-04-22T03:44:43.153Z,93.6658
2023-04-22T03:45:43.642Z,93.4476
2023-04-22T03:46:44.558Z,93.5427
2023-04-22T03:47:45.289Z,93.6237
2023-04-22T03:48:45.617Z,93.6586
2023-04-22T03:49:46.066Z,93.3989
2023-04-22T03:50:46.437Z,93.2501
2023-04-22T03:51:46.890Z,93.2425
2023-04-22T03:52:47.330Z,93.2738
2023-04-22T03:53:47.710Z,93.3350
2023-04-22T03:54:48.125Z,93.4989
2023-04-22T03:55:48.536Z,93.5048
2023-04-22T03:56:48.913Z,93.6735
2023-04-22T03:57:49.302Z,93.1306
2023-04-22T03:58:49.788Z,93.0512
2023-04-22T03:59:50.200Z,92.7758
2023-04-22T04:00:50.669Z,92.9387
2023-04-22T04:01:51.037Z,93.3668
2023-04-22T04:02:51.759Z,93.6956
2023-04-22T04:03:52.896Z,94.0730
2023-04-22T04:04:54.300Z,94.3631
2023-04-22T04:05:55.212Z,94.3061
2023-04-22T04:06:56.049Z,94.4186
2023-04-22T04:07:56.432Z,94.6139
2023-04-22T04:08:56.782Z,94.6233
2023-04-22T04:09:57.224Z,94.6896
2023-04-22T04:10:57.617Z,94.6050
2023-04-22T04:11:58.048Z,94.7133
2023-04-22T04:12:58.415Z,95.1825
2023-04-22T04:13:58.858Z,95.4131
2023-04-22T04:14:59.281Z,95.4874
2023-04-22T04:15:59.754Z,95.4756
2023-04-22T04:17:00.212Z,95.3803
2023-04-22T04:18:00.814Z,95.2964
2023-04-22T04:19:01.266Z,95.2772
2023-04-22T04:20:01.685Z,95.1797
2023-04-22T04:21:02.085Z,95.1532
2023-04-22T04:22:02.513Z,95.2816
2023-04-22T04:23:02.942Z,95.3578
2023-04-22T04:24:03.350Z,95.4393
2023-04-22T04:25:03.783Z,95.4333
2023-04-22T04:26:04.146Z,95.3690
2023-04-22T04:27:04.589Z,95.3453
2023-04-22T04:28:05.005Z,95.3694
2023-04-22T04:29:05.351Z,95.3244
2023-04-22T04:30:05.819Z,95.3157
2023-04-22T04:31:06.343Z,95.2219
2023-04-22T04:32:06.710Z,95.0012
2023-04-22T04:33:07.726Z,94.6741
2023-04-22T04:34:08.309Z,94.4204
2023-04-22T04:35:08.751Z,94.1679
2023-04-22T04:36:09.152Z,93.8669
2023-04-22T04:37:09.538Z,93.6361
2023-04-22T04:38:09.991Z,93.4521
2023-04-22T04:39:10.360Z,93.2754
2023-04-22T04:40:10.789Z,93.0362
2023-04-22T04:41:11.242Z,93.0216
2023-04-22T04:42:11.656Z,93.1125
2023-04-22T04:43:12.150Z,93.1422
2023-04-22T04:44:13.947Z,92.8557
2023-04-22T04:45:14.377Z,92.5689
2023-04-22T04:46:14.872Z,92.5756
2023-04-22T04:47:15.214Z,92.2502
2023-04-22T04:48:15.651Z,92.2104
2023-04-22T04:49:16.141Z,92.8610
2023-04-22T04:50:16.515Z,92.7206
2023-04-22T04:51:20.706Z,92.6562
2023-04-22T04:52:18.796Z,92.5730
2023-04-22T04:53:19.176Z,92.1768
2023-04-22T04:54:19.605Z,92.4009
2023-04-22T04:55:20.011Z,92.6142
2023-04-22T04:56:20.459Z,92.8737
2023-04-22T04:57:20.844Z,92.9870
2023-04-22T04:58:21.242Z,93.1124
2023-04-22T04:59:21.636Z,93.0385
2023-04-22T05:00:22.106Z,93.0982
2023-04-22T05:01:22.632Z,92.9868
2023-04-22T05:02:23.808Z,92.9183
2023-04-22T05:03:25.175Z,92.7690
2023-04-22T05:04:26.418Z,93.0757
2023-04-22T05:05:27.264Z,93.1773
2023-04-22T05:06:27.639Z,93.2278
2023-04-22T05:07:28.118Z,92.7080
2023-04-22T05:08:28.504Z,92.7886
2023-04-22T05:09:28.938Z,92.6549
2023-04-22T05:10:29.316Z,92.6065
2023-04-22T05:11:29.663Z,92.6859
2023-04-22T05:12:30.088Z,92.9883
2023-04-22T05:13:30.491Z,93.2835
2023-04-22T05:14:30.905Z,92.8355
2023-04-22T05:15:31.290Z,92.6870
2023-04-22T05:16:31.771Z,92.7865
2023-04-22T05:17:32.319Z,92.7861
2023-04-22T05:18:32.684Z,92.7799
2023-04-22T05:19:33.125Z,92.5847
2023-04-22T05:20:36.453Z,92.9276
2023-04-22T05:21:34.425Z,93.2211
2023-04-22T05:22:34.888Z,93.4513
2023-04-22T05:23:35.251Z,93.6759
2023-04-22T05:24:35.640Z,93.8947
2023-04-22T05:25:36.023Z,94.1358
2023-04-22T05:26:36.378Z,94.3475
2023-04-22T05:27:36.755Z,94.6130
2023-04-22T05:28:37.166Z,94.9513
2023-04-22T05:29:37.780Z,95.1903
2023-04-22T05:30:38.461Z,95.3182
2023-04-22T05:31:38.915Z,95.4664
2023-04-22T05:32:39.403Z,95.4728
2023-04-22T05:33:39.811Z,95.4399
2023-04-22T05:34:40.194Z,95.4933
2023-04-22T05:35:40.639Z,95.5481
2023-04-22T05:36:41.124Z,95.4640
2023-04-22T05:37:41.462Z,95.3008
2023-04-22T05:38:41.878Z,95.1553
2023-04-22T05:39:42.734Z,95.0485
2023-04-22T05:40:43.153Z,94.9302
2023-04-22T05:41:47.371Z,94.8606
2023-04-22T05:42:45.375Z,94.7534
2023-04-22T05:43:45.734Z,94.5959
2023-04-22T05:44:46.112Z,94.3120
2023-04-22T05:45:46.614Z,93.9865
2023-04-22T05:46:47.076Z,93.9085
2023-04-22T05:47:47.646Z,93.9486
2023-04-22T05:48:47.996Z,93.9419
2023-04-22T05:49:48.417Z,94.0888
2023-04-22T05:50:48.841Z,94.3048
2023-04-22T05:51:49.248Z,94.4900
2023-04-22T05:52:49.667Z,94.5191
2023-04-22T05:53:50.046Z,94.5091
2023-04-22T05:54:50.474Z,94.5303
2023-04-22T05:55:50.934Z,94.1649
2023-04-22T05:56:51.405Z,94.0733
2023-04-22T05:57:51.852Z,94.0175
2023-04-22T05:58:52.270Z,94.0497
2023-04-22T05:59:52.706Z,93.9320
2023-04-22T06:00:53.069Z,93.9537
2023-04-22T06:01:53.516Z,94.1218
2023-04-22T06:02:54.275Z,94.0568
2023-04-22T06:03:55.124Z,94.0293
2023-04-22T06:04:57.337Z,94.0675
2023-04-22T06:05:56.343Z,94.0155
2023-04-22T06:06:57.842Z,93.8867
2023-04-22T06:07:58.196Z,93.8524
2023-04-22T06:08:58.560Z,93.8896
2023-04-22T06:10:05.561Z,94.0039
2023-04-22T06:10:58.987Z,93.9669
2023-04-22T06:11:59.308Z,93.8923
2023-04-22T06:12:59.672Z,93.9034
2023-04-22T06:14:00.069Z,93.8811
2023-04-22T06:15:00.440Z,93.7954
2023-04-22T06:16:00.803Z,93.7189
2023-04-22T06:17:01.205Z,93.9782
2023-04-22T06:18:01.588Z,93.9814
2023-04-22T06:19:01.970Z,93.9681
2023-04-22T06:20:02.277Z,93.8830
2023-04-22T06:21:02.612Z,93.6609
2023-04-22T06:22:02.894Z,93.4289
2023-04-22T06:23:03.273Z,93.3257
2023-04-22T06:24:03.639Z,93.1953
2023-04-22T06:25:03.935Z,93.0755
2023-04-22T06:26:04.301Z,92.8909
2023-04-22T06:27:04.729Z,92.7611
2023-04-22T06:28:05.059Z,92.4796
2023-04-22T06:29:05.389Z,92.2722
2023-04-22T06:30:05.782Z,91.9470
2023-04-22T06:31:06.117Z,91.7587
2023-04-22T06:32:06.487Z,91.5123
2023-04-22T06:33:06.875Z,91.5275
2023-04-22T06:34:07.240Z,91.4624
2023-04-22T06:35:07.549Z,91.5427
2023-04-22T06:36:07.943Z,91.3071
2023-04-22T06:37:08.241Z,90.8563
2023-04-22T06:38:08.540Z,90.6852
2023-04-22T06:39:08.879Z,90.5259
2023-04-22T06:40:09.235Z,90.1740
2023-04-22T06:41:09.619Z,90.0445
2023-04-22T06:42:10.035Z,89.9805
2023-04-22T06:43:10.397Z,89.9822
2023-04-22T06:44:10.692Z,90.0222
2023-04-22T06:45:11.140Z,89.9677
2023-04-22T06:46:11.438Z,89.8216
2023-04-22T06:47:11.803Z,89.7197
2023-04-22T06:48:12.138Z,89.7102
2023-04-22T06:49:12.453Z,89.6588
2023-04-22T06:50:12.818Z,89.3427
2023-04-22T06:51:13.167Z,89.0155
2023-04-22T06:52:13.455Z,88.6331
2023-04-22T06:53:13.772Z,88.6363
2023-04-22T06:54:14.116Z,88.4229
2023-04-22T06:55:14.390Z,88.3496
2023-04-22T06:56:14.710Z,88.1074
2023-04-22T06:57:14.997Z,88.0531
2023-04-22T06:58:15.314Z,87.8769
2023-04-22T06:59:15.609Z,87.4030
2023-04-22T07:00:16.052Z,87.3938
2023-04-22T07:01:16.369Z,87.5695
2023-04-22T07:02:17.094Z,87.4957
2023-04-22T07:03:17.957Z,87.4524
2023-04-22T07:04:18.412Z,87.2178
2023-04-22T07:05:18.795Z,87.0378
2023-04-22T07:06:19.151Z,86.7550
2023-04-22T07:07:19.477Z,86.5097
2023-04-22T07:08:19.794Z,86.1148
2023-04-22T07:09:20.142Z,85.7491
2023-04-22T07:10:20.459Z,85.3635
2023-04-22T07:11:20.798Z,85.1391
2023-04-22T07:12:21.240Z,85.5468
2023-04-22T07:13:21.624Z,86.2770
2023-04-22T07:14:21.951Z,86.2751
2023-04-22T07:15:22.324Z,85.9037
2023-04-22T07:16:22.642Z,85.3489
2023-04-22T07:17:23.185Z,85.1870
2023-04-22T07:18:23.528Z,85.0736
2023-04-22T07:19:23.887Z,84.7080
2023-04-22T07:20:24.208Z,84.1570
2023-04-22T07:21:24.744Z,83.6357
2023-04-22T07:22:25.057Z,83.1903
2023-04-22T07:23:25.424Z,83.5499
2023-04-22T07:24:25.771Z,84.0823
2023-04-22T07:25:26.075Z,83.8390
2023-04-22T07:26:26.416Z,83.4064
2023-04-22T07:27:26.734Z,83.3004
2023-04-22T07:28:27.077Z,83.0946
2023-04-22T07:29:27.369Z,82.7403
2023-04-22T07:30:27.706Z,82.6136
2023-04-22T07:31:28.109Z,82.4124
2023-04-22T07:32:28.449Z,82.6953
2023-04-22T07:33:28.800Z,83.0238
2023-04-22T07:34:29.087Z,82.9124
2023-04-22T07:35:29.416Z,82.8567
2023-04-22T07:36:29.816Z,82.0894
2023-04-22T07:37:30.118Z,81.5784
2023-04-22T07:38:30.461Z,81.4403
2023-04-22T07:39:30.779Z,81.3872
2023-04-22T07:40:31.153Z,81.4754
2023-04-22T07:41:31.528Z,81.1406
2023-04-22T07:42:31.856Z,80.8461
2023-04-22T07:43:32.236Z,80.5415
2023-04-22T07:44:32.526Z,80.4555
2023-04-22T07:45:32.902Z,80.3874
2023-04-22T07:46:33.226Z,80.4370
2023-04-22T07:47:33.627Z,80.8894
2023-04-22T07:48:33.912Z,81.2577
2023-04-22T07:49:34.284Z,81.1381
2023-04-22T07:50:38.131Z,81.1692
2023-04-22T07:51:36.705Z,81.1847
2023-04-22T07:52:37.072Z,81.1062
2023-04-22T07:53:37.389Z,80.9916
2023-04-22T07:54:37.678Z,80.5508
2023-04-22T07:55:37.967Z,80.7879
2023-04-22T07:56:38.283Z,80.9174
2023-04-22T07:57:38.751Z,80.8582
2023-04-22T07:58:39.197Z,80.3246
2023-04-22T07:59:40.163Z,80.1491
2023-04-22T08:00:40.817Z,80.0318
2023-04-22T08:01:41.242Z,79.6099
2023-04-22T08:02:41.903Z,79.7627
2023-04-22T08:03:42.834Z,79.7757
2023-04-22T08:04:43.492Z,79.1950
2023-04-22T08:05:43.829Z,79.0571
2023-04-22T08:06:44.139Z,79.3812
2023-04-22T08:07:44.424Z,79.4508
2023-04-22T08:08:44.884Z,79.2183
2023-04-22T08:09:45.157Z,78.8413
2023-04-22T08:10:45.456Z,78.9492
2023-04-22T08:11:45.850Z,78.3155
2023-04-22T08:12:46.190Z,77.5812
2023-04-22T08:13:46.586Z,78.3198
2023-04-22T08:14:46.854Z,78.0490
2023-04-22T08:15:47.134Z,77.3334
2023-04-22T08:16:47.444Z,77.8271
2023-04-22T08:17:47.881Z,77.9926
2023-04-22T08:18:48.166Z,76.9658
2023-04-22T08:19:48.465Z,77.1530
2023-04-22T08:20:48.780Z,77.2138
2023-04-22T08:21:49.095Z,77.3980
2023-04-22T08:22:49.449Z,77.6319
2023-04-22T08:23:49.739Z,77.6361
2023-04-22T08:24:50.035Z,77.4610
2023-04-22T08:25:50.372Z,77.1052
2023-04-22T08:26:50.775Z,76.2577
2023-04-22T08:27:51.061Z,76.2099
2023-04-22T08:28:51.365Z,76.3420
2023-04-22T08:29:51.632Z,76.5414
2023-04-22T08:30:51.875Z,76.5253
2023-04-22T08:31:52.257Z,75.9614
2023-04-22T08:32:52.610Z,75.4609
2023-04-22T08:33:52.947Z,75.9174
2023-04-22T08:35:04.315Z,74.8337
2023-04-22T08:35:53.366Z,74.1266
2023-04-22T08:36:53.614Z,74.8863
2023-04-22T08:37:53.936Z,74.9089
2023-04-22T08:38:54.249Z,74.7969
2023-04-22T08:39:54.596Z,73.7559
2023-04-22T08:40:54.814Z,73.6301
2023-04-22T08:41:55.165Z,73.0307
2023-04-22T08:42:55.439Z,72.3108
2023-04-22T08:43:55.832Z,71.8260
2023-04-22T08:44:56.178Z,71.4161
2023-04-22T08:45:56.421Z,71.4002
2023-04-22T08:46:57.005Z,70.2562
2023-04-22T08:47:57.563Z,69.7136
2023-04-22T08:48:57.898Z,69.7841
2023-04-22T08:49:58.213Z,69.5273
2023-04-22T08:50:58.477Z,69.7186
2023-04-22T08:51:58.843Z,69.4685
2023-04-22T08:52:59.103Z,69.5098
2023-04-22T08:53:59.359Z,70.1657
2023-04-22T08:54:59.642Z,70.9314
2023-04-22T08:55:59.883Z,71.3783
2023-04-22T08:57:00.264Z,71.6182
2023-04-22T08:58:00.617Z,71.5452
2023-04-22T08:59:00.945Z,71.0502
2023-04-22T09:00:01.448Z,71.5853
2023-04-22T09:01:01.690Z,71.1595
2023-04-22T09:02:02.119Z,71.3740
2023-04-22T09:03:02.681Z,71.4277
2023-04-22T09:04:03.233Z,71.7401
2023-04-22T09:05:03.596Z,71.6616
2023-04-22T09:06:03.892Z,71.8101
2023-04-22T09:07:04.224Z,71.4380
2023-04-22T09:08:04.456Z,71.2772
2023-04-22T09:09:04.715Z,71.5887
2023-04-22T09:10:05.026Z,71.3514
2023-04-22T09:11:05.353Z,70.5234
2023-04-22T09:12:05.652Z,70.5701
2023-04-22T09:13:05.944Z,70.8695
2023-04-22T09:14:06.313Z,70.3125
2023-04-22T09:15:06.653Z,69.8082
2023-04-22T09:16:06.902Z,69.1801
2023-04-22T09:17:07.322Z,70.1271
2023-04-22T09:18:07.562Z,70.6744
2023-04-22T09:19:07.819Z,71.0387
2023-04-22T09:20:08.123Z,70.9797
2023-04-22T09:21:08.443Z,70.5490
2023-04-22T09:22:08.760Z,69.9170
2023-04-22T09:23:09.023Z,68.8371
2023-04-22T09:24:09.312Z,69.1997
2023-04-22T09:25:09.590Z,68.7154
2023-04-22T09:26:09.835Z,68.6975
2023-04-22T09:27:10.143Z,68.6937
2023-04-22T09:28:10.544Z,67.8470
2023-04-22T09:29:10.832Z,68.6495
2023-04-22T09:30:11.364Z,68.8118
2023-04-22T09:31:11.613Z,67.5674
2023-04-22T09:32:12.030Z,67.8691
2023-04-22T09:33:12.451Z,68.5715
2023-04-22T09:34:13.661Z,68.0978
2023-04-22T09:35:13.992Z,67.8822
2023-04-22T09:36:14.239Z,67.8003
2023-04-22T09:37:14.512Z,66.8570
2023-04-22T09:38:14.763Z,65.8891
2023-04-22T09:39:15.131Z,65.0275
2023-04-22T09:40:15.373Z,64.9381
2023-04-22T09:41:15.684Z,64.8213
2023-04-22T09:42:15.976Z,64.4308
2023-04-22T09:43:16.276Z,63.5372
2023-04-22T09:44:16.777Z,63.0565
2023-04-22T09:45:17.124Z,64.2534
2023-04-22T09:46:17.403Z,65.0964
2023-04-22T09:47:17.702Z,64.5555
2023-04-22T09:48:17.954Z,64.1125
2023-04-22T09:49:18.242Z,63.6465
2023-04-22T09:50:18.471Z,63.1234
2023-04-22T09:51:18.710Z,63.5128
2023-04-22T09:52:19.040Z,62.9738
2023-04-22T09:53:19.466Z,64.1940
2023-04-22T09:54:19.733Z,63.2154
2023-04-22T09:55:19.928Z,63.4587
2023-04-22T09:56:20.212Z,63.6518
2023-04-22T09:57:20.473Z,63.2769
2023-04-22T09:58:20.695Z,62.8194
2023-04-22T09:59:20.925Z,62.4977
2023-04-22T10:00:21.126Z,61.9423
2023-04-22T10:01:21.429Z,62.8656
2023-04-22T10:02:21.823Z,64.1423
2023-04-22T10:03:22.096Z,65.1479
2023-04-22T10:04:22.478Z,65.0405
2023-04-22T10:05:22.690Z,63.8119
2023-04-22T10:06:22.900Z,64.0514
2023-04-22T10:07:23.243Z,63.3635
2023-04-22T10:08:23.441Z,62.8086
2023-04-22T10:09:23.657Z,63.3258
2023-04-22T10:10:23.984Z,63.4302
2023-04-22T10:11:24.565Z,63.9954
2023-04-22T10:12:35.470Z,63.8491
2023-04-22T10:13:25.169Z,63.3453
2023-04-22T10:14:25.388Z,62.8203
2023-04-22T10:15:27.586Z,62.4893
2023-04-22T10:16:25.511Z,61.9203
2023-04-22T10:17:25.841Z,60.5076
2023-04-22T10:18:26.087Z,60.0944
2023-04-22T10:19:26.345Z,61.0795
2023-04-22T10:20:26.598Z,61.2005
2023-04-22T10:21:26.907Z,60.2413
2023-04-22T10:22:27.200Z,61.1228
2023-04-22T10:23:27.474Z,62.1546
2023-04-22T10:24:27.772Z,61.4840
2023-04-22T10:25:28.005Z,61.4484
2023-04-22T10:26:28.363Z,61.3433
2023-04-22T10:27:28.610Z,60.3529
2023-04-22T10:28:28.861Z,60.7827
2023-04-22T10:29:29.086Z,60.3790
2023-04-22T10:30:29.342Z,60.8134
2023-04-22T10:31:29.615Z,60.8617
2023-04-22T10:32:29.985Z,61.8169
2023-04-22T10:33:30.230Z,61.0408
2023-04-22T10:34:30.427Z,61.5650
2023-04-22T10:35:30.781Z,61.1483
2023-04-22T10:36:31.031Z,60.7277
2023-04-22T10:37:33.945Z,61.1237
2023-04-22T10:38:31.757Z,59.8580
2023-04-22T10:39:32.350Z,58.9969
2023-04-22T10:40:32.770Z,59.5618
2023-04-22T10:41:33.002Z,59.9972
2023-04-22T10:42:33.331Z,60.1399
2023-04-22T10:43:33.531Z,59.6027
2023-04-22T10:44:33.760Z,59.3023
2023-04-22T10:45:34.055Z,60.1060
2023-04-22T10:46:34.379Z,60.8562
2023-04-22T10:47:34.869Z,61.0911
2023-04-22T10:48:35.080Z,60.8453
2023-04-22T10:49:35.320Z,60.8792
2023-04-22T10:50:35.564Z,60.8185
2023-04-22T10:51:35.782Z,60.7893
2023-04-22T10:52:37.002Z,61.0166
2023-04-22T10:53:37.247Z,60.1751
2023-04-22T10:54:37.544Z,60.7225
2023-04-22T10:55:37.739Z,60.3118
2023-04-22T10:56:51.736Z,60.0541
2023-04-22T10:57:38.227Z,60.0374
2023-04-22T10:58:38.409Z,59.6608
2023-04-22T10:59:39.186Z,59.8006
2023-04-22T11:00:53.581Z,60.5388
2023-04-22T11:01:40.050Z,60.2831
2023-04-22T11:02:40.505Z,59.5684
2023-04-22T11:03:41.254Z,59.2163
2023-04-22T11:04:41.538Z,58.5594
2023-04-22T11:05:41.770Z,59.6241
2023-04-22T11:06:42.045Z,57.9604
2023-04-22T11:07:42.273Z,57.6071
2023-04-22T11:08:42.507Z,57.2597
2023-04-22T11:09:42.869Z,56.9940
2023-04-22T11:10:45.337Z,57.6264
2023-04-22T11:11:43.178Z,56.7891
2023-04-22T11:12:43.435Z,57.0982
2023-04-22T11:13:43.671Z,57.5191
2023-04-22T11:14:43.890Z,56.4922
2023-04-22T11:15:44.097Z,56.7175
2023-04-22T11:16:44.523Z,56.2634
2023-04-22T11:17:44.810Z,55.3506
2023-04-22T11:18:45.010Z,55.5684
2023-04-22T11:19:45.211Z,57.2484
2023-04-22T11:20:45.410Z,55.2249
2023-04-22T11:21:45.640Z,53.8595
2023-04-22T11:22:45.892Z,52.9268
2023-04-22T11:23:46.102Z,52.5000
2023-04-22T11:24:46.348Z,51.7593
2023-04-22T11:25:46.583Z,51.5132
2023-04-22T11:26:46.826Z,51.6981
2023-04-22T11:27:47.084Z,51.3576
2023-04-22T11:28:47.298Z,51.6621
2023-04-22T11:29:47.475Z,50.7344
2023-04-22T11:30:47.793Z,50.1068
2023-04-22T11:31:47.958Z,49.2348
2023-04-22T11:32:48.260Z,49.3388
2023-04-22T11:33:50.920Z,48.6251
2023-04-22T11:34:48.826Z,48.2225
2023-04-22T11:35:49.033Z,47.8607
2023-04-22T11:36:49.210Z,47.1376
2023-04-22T11:37:49.485Z,46.8037
2023-04-22T11:38:49.763Z,47.2486
2023-04-22T11:40:13.184Z,48.0973
2023-04-22T11:40:50.096Z,48.6280
2023-04-22T11:41:50.310Z,47.6398
2023-04-22T11:42:50.493Z,47.5180
2023-04-22T11:43:50.645Z,49.2606
2023-04-22T11:44:50.856Z,47.8414
2023-04-22T11:45:51.041Z,48.3516
2023-04-22T11:46:51.238Z,49.0585
2023-04-22T11:47:51.524Z,48.9268
2023-04-22T11:48:51.626Z,48.7760
2023-04-22T11:49:51.777Z,48.4952
2023-04-22T11:50:51.920Z,48.6915
2023-04-22T11:51:52.094Z,48.5022
2023-04-22T11:52:52.289Z,47.8442
2023-04-22T11:53:52.464Z,46.9130
2023-04-22T11:54:52.715Z,45.8632
2023-04-22T11:55:52.852Z,46.0569
2023-04-22T11:56:52.974Z,46.8006
2023-04-22T11:57:53.277Z,46.5524
2023-04-22T11:58:53.421Z,45.9416
2023-04-22T11:59:53.654Z,45.5145
2023-04-22T12:00:53.757Z,44.8802
2023-04-22T12:01:53.849Z,45.0403
2023-04-22T12:02:54.171Z,44.7830
2023-04-22T12:03:54.494Z,45.3217
2023-04-22T12:04:54.584Z,46.8246
2023-04-22T12:05:54.745Z,47.7207
2023-04-22T12:06:54.894Z,47.0700
2023-04-22T12:07:55.060Z,47.5522
2023-04-22T12:08:55.155Z,48.1735
2023-04-22T12:09:55.301Z,48.1533